Sea Drift — WDC2818 — position and weather

sailwx.info

Track history (hours):
 
Tides and Currents Weather Stations Pressure Air Temp Water Temp Dewpoint Dewpoint Depression Visibility Wind Speed Wind Dir Waves Ship Positions

Sea Drift

Owner: Marquette Transportation Company Gulf-Inland, LLC, Jefferson, LA. More information available from US FCC via Universal Licensing System and Coast Guard Vessel Documentation Center.

Last reported at 2016-Feb-14 03:33 UTC. Time now 2016-Feb-14 03:56 UTC.
Position N 29°35' W 090°37'.

Length 23 m; draft 3 m.

Type: Towing. MMSI: 366998080.

Date/timePositionNaut miles runAvg speedWind from/ knotsBaromVisibWave heightAir tempDewpointWater temp
2016-Feb-14 03:33N 29°35' W 090°37'6 2.9
2016-Feb-14 01:33N 29°34' W 090°31'4 3.9
2016-Feb-14 00:28N 29°33' W 090°26'  
2016-Feb-07 15:32N 29°51' W 091°56'13 4.1
2016-Feb-07 12:25N 29°47' W 092°10'4 4.3
2016-Feb-07 11:29N 29°48' W 092°15'25 4.1
2016-Feb-07 05:17N 29°57' W 092°42'4 4.4
2016-Feb-07 04:28N 29°58' W 092°46'10 4.2
2016-Feb-07 02:07N 29°56' W 092°57'1 2.6
2016-Feb-07 01:33N 29°56' W 092°59'4 3.7
2016-Feb-07 00:33N 29°56' W 093°03'4 3.9
2016-Feb-06 23:33N 29°56' W 093°07'4 3.8
2016-Feb-06 22:33N 29°58' W 093°11'4 3.9
2016-Feb-06 21:33N 30°01' W 093°14'3 2.9
2016-Feb-06 20:33N 30°03' W 093°16'4 3.8
2016-Feb-06 19:33N 30°06' W 093°19'2 1.9
2016-Feb-06 18:33N 30°04' W 093°20'0 0.1
2016-Feb-06 17:33N 30°05' W 093°20'0 0.1
2016-Feb-06 16:33N 30°04' W 093°20'1 1.4
2016-Feb-06 15:33N 30°04' W 093°21'0 0.0
2016-Feb-06 14:33N 30°04' W 093°21'3 3.3
2016-Feb-06 13:33N 30°04' W 093°25'5 4.6
2016-Feb-06 12:33N 30°04' W 093°31'4 4.2
2016-Feb-06 11:33N 30°04' W 093°35'5 4.6
2016-Feb-06 10:33N 30°04' W 093°41'4 3.9
2016-Feb-06 09:33N 30°01' W 093°45'5 4.7
2016-Feb-06 08:33N 29°59' W 093°49'11 5.0
2016-Feb-06 06:15N 29°50' W 093°57'2 2.3
2016-Feb-06 05:33N 29°49' W 093°59'50 3.2
2016-Feb-05 14:06N 29°30' W 094°52'3 6.0
2016-Feb-05 13:33N 29°32' W 094°54'5 5.2
2016-Feb-05 12:33N 29°37' W 094°57'5 5.4
2016-Feb-05 11:33N 29°42' W 094°60'4 4.1
2016-Feb-05 10:33N 29°44' W 095°03'3 2.4
2016-Feb-05 09:22N 29°46' W 095°06'0 0.0
2016-Feb-05 07:28N 29°46' W 095°06'0 0.1
2016-Feb-05 04:10N 29°46' W 095°06'2 2.7
2016-Feb-05 03:33N 29°45' W 095°04'5 4.6
2016-Feb-05 02:33N 29°42' W 095°01'7 7.0
2016-Feb-05 01:33N 29°36' W 094°57'7 7.4
2016-Feb-05 00:33N 29°30' W 094°52'  
Track history (hours):
 
Tides and Currents Weather Stations Pressure Air Temp Water Temp Dewpoint Dewpoint Depression Visibility Wind Speed Wind Dir Waves Ship Positions

Sea Drift

Owner: Marquette Transportation Company Gulf-Inland, LLC, Jefferson, LA. More information available from US FCC via Universal Licensing System and Coast Guard Vessel Documentation Center.

Last reported at 2016-Feb-14 03:33 UTC. Time now 2016-Feb-14 03:56 UTC.
Position N 29°35' W 090°37'.

Length 23 m; draft 3 m.

Type: Towing. MMSI: 366998080.

Date/timePositionNaut miles runAvg speedWind from/ knotsBaromVisibWave heightAir tempDewpointWater temp
2016-Feb-14 03:33N 29°35' W 090°37'6 2.9
2016-Feb-14 01:33N 29°34' W 090°31'4 3.9
2016-Feb-14 00:28N 29°33' W 090°26'  
2016-Feb-07 15:32N 29°51' W 091°56'13 4.1
2016-Feb-07 12:25N 29°47' W 092°10'4 4.3
2016-Feb-07 11:29N 29°48' W 092°15'25 4.1
2016-Feb-07 05:17N 29°57' W 092°42'4 4.4
2016-Feb-07 04:28N 29°58' W 092°46'10 4.2
2016-Feb-07 02:07N 29°56' W 092°57'1 2.6
2016-Feb-07 01:33N 29°56' W 092°59'4 3.7
2016-Feb-07 00:33N 29°56' W 093°03'4 3.9
2016-Feb-06 23:33N 29°56' W 093°07'4 3.8
2016-Feb-06 22:33N 29°58' W 093°11'4 3.9
2016-Feb-06 21:33N 30°01' W 093°14'3 2.9
2016-Feb-06 20:33N 30°03' W 093°16'4 3.8
2016-Feb-06 19:33N 30°06' W 093°19'2 1.9
2016-Feb-06 18:33N 30°04' W 093°20'0 0.1
2016-Feb-06 17:33N 30°05' W 093°20'0 0.1
2016-Feb-06 16:33N 30°04' W 093°20'1 1.4
2016-Feb-06 15:33N 30°04' W 093°21'0 0.0
2016-Feb-06 14:33N 30°04' W 093°21'3 3.3
2016-Feb-06 13:33N 30°04' W 093°25'5 4.6
2016-Feb-06 12:33N 30°04' W 093°31'4 4.2
2016-Feb-06 11:33N 30°04' W 093°35'5 4.6
2016-Feb-06 10:33N 30°04' W 093°41'4 3.9
2016-Feb-06 09:33N 30°01' W 093°45'5 4.7
2016-Feb-06 08:33N 29°59' W 093°49'11 5.0
2016-Feb-06 06:15N 29°50' W 093°57'2 2.3
2016-Feb-06 05:33N 29°49' W 093°59'50 3.2
2016-Feb-05 14:06N 29°30' W 094°52'3 6.0
2016-Feb-05 13:33N 29°32' W 094°54'5 5.2
2016-Feb-05 12:33N 29°37' W 094°57'5 5.4
2016-Feb-05 11:33N 29°42' W 094°60'4 4.1
2016-Feb-05 10:33N 29°44' W 095°03'3 2.4
2016-Feb-05 09:22N 29°46' W 095°06'0 0.0
2016-Feb-05 07:28N 29°46' W 095°06'0 0.1
2016-Feb-05 04:10N 29°46' W 095°06'2 2.7
2016-Feb-05 03:33N 29°45' W 095°04'5 4.6
2016-Feb-05 02:33N 29°42' W 095°01'7 7.0
2016-Feb-05 01:33N 29°36' W 094°57'7 7.4
2016-Feb-05 00:33N 29°30' W 094°52'  

Dump ship's entire track history